createdAt,value
2023-04-16T00:01:55.921Z,84.23
2023-04-16T00:04:44.245Z,85.03
2023-04-16T00:07:33.221Z,84.42
2023-04-16T00:10:18.800Z,84.18
2023-04-16T00:13:07.380Z,84.33
2023-04-16T00:15:53.052Z,86.70
2023-04-16T00:18:41.579Z,85.93
2023-04-16T00:21:27.452Z,85.57
2023-04-16T00:24:15.956Z,84.28
2023-04-16T00:27:01.656Z,84.08
2023-04-16T00:29:48.042Z,84.64
2023-04-16T00:32:36.091Z,85.22
2023-04-16T00:35:24.816Z,84.79
2023-04-16T00:38:12.026Z,85.63
2023-04-16T00:41:03.183Z,84.47
2023-04-16T00:43:51.876Z,85.28
2023-04-16T00:46:38.297Z,88.46
2023-04-16T00:49:24.904Z,88.21
2023-04-16T00:52:15.666Z,87.84
2023-04-16T00:55:01.309Z,87.19
2023-04-16T00:57:46.962Z,87.91
2023-04-16T01:00:35.741Z,87.06
2023-04-16T01:03:21.233Z,86.00
2023-04-16T01:06:12.167Z,85.83
2023-04-16T01:09:03.076Z,85.17
2023-04-16T01:11:48.724Z,85.61
2023-04-16T01:14:34.568Z,85.98
2023-04-16T01:17:23.014Z,86.01
2023-04-16T01:20:08.692Z,86.16
2023-04-16T01:22:54.225Z,85.85
2023-04-16T01:25:39.778Z,85.84
2023-04-16T01:28:26.041Z,85.22
2023-04-16T01:31:11.625Z,84.62
2023-04-16T01:34:23.162Z,84.27
2023-04-16T01:37:08.737Z,85.02
2023-04-16T01:39:56.228Z,86.01
2023-04-16T01:42:42.033Z,85.03
2023-04-16T01:45:27.881Z,85.88
2023-04-16T01:48:13.231Z,85.68
2023-04-16T01:50:58.745Z,85.83
2023-04-16T01:53:47.322Z,86.15
2023-04-16T01:56:32.862Z,85.51
2023-04-16T01:59:17.959Z,87.00
2023-04-16T02:02:11.271Z,87.95
2023-04-16T02:04:57.877Z,88.00
2023-04-16T02:07:43.428Z,88.08
2023-04-16T02:10:29.035Z,87.72
2023-04-16T02:13:17.501Z,88.29
2023-04-16T02:16:05.632Z,87.22
2023-04-16T02:19:22.877Z,90.02
2023-04-16T02:22:08.602Z,88.92
2023-04-16T02:24:54.108Z,89.88
2023-04-16T02:27:43.007Z,90.77
2023-04-16T02:30:42.412Z,91.54
2023-04-16T02:33:28.256Z,92.48
2023-04-16T02:36:20.309Z,92.62
2023-04-16T02:39:05.773Z,93.02
2023-04-16T02:41:51.466Z,93.74
2023-04-16T02:44:37.620Z,94.17
2023-04-16T02:47:23.388Z,94.73
2023-04-16T02:50:10.135Z,93.80
2023-04-16T02:52:55.665Z,93.98
2023-04-16T02:55:41.834Z,93.40
2023-04-16T02:58:27.356Z,94.64
2023-04-16T03:01:17.396Z,95.29
2023-04-16T03:04:05.467Z,94.19
2023-04-16T03:06:51.522Z,94.62
2023-04-16T03:09:40.050Z,92.91
2023-04-16T03:12:25.581Z,92.55
2023-04-16T03:15:11.262Z,93.07
2023-04-16T03:18:02.131Z,93.67
2023-04-16T03:21:00.043Z,91.95
2023-04-16T03:23:47.175Z,91.84
2023-04-16T03:26:32.971Z,92.80
2023-04-16T03:29:18.582Z,92.81
2023-04-16T03:32:04.012Z,94.04
2023-04-16T03:34:49.814Z,93.36
2023-04-16T03:37:35.563Z,91.52
2023-04-16T03:40:20.953Z,93.02
2023-04-16T03:43:06.312Z,93.22
2023-04-16T03:45:51.768Z,94.81
2023-04-16T03:48:39.944Z,94.88
2023-04-16T03:51:26.097Z,95.57
2023-04-16T03:54:11.621Z,95.03
2023-04-16T03:56:57.639Z,95.18
2023-04-16T03:59:43.182Z,94.41
2023-04-16T04:02:28.801Z,95.91
2023-04-16T04:05:14.818Z,96.23
2023-04-16T04:08:03.510Z,96.12
2023-04-16T04:10:56.279Z,93.68
2023-04-16T04:13:45.943Z,94.87
2023-04-16T04:16:32.844Z,94.67
2023-04-16T04:19:18.325Z,93.88
2023-04-16T04:22:04.184Z,95.25
2023-04-16T04:24:49.867Z,95.57
2023-04-16T04:27:35.728Z,95.57
2023-04-16T04:30:21.450Z,94.25
2023-04-16T04:33:07.220Z,92.47
2023-04-16T04:35:54.821Z,92.03
2023-04-16T04:38:41.224Z,91.63
2023-04-16T04:41:26.757Z,93.74
2023-04-16T04:44:11.811Z,95.26
2023-04-16T04:46:57.649Z,96.30
2023-04-16T04:49:45.706Z,97.22
2023-04-16T04:52:31.011Z,97.79
2023-04-16T04:55:16.439Z,99.44
2023-04-16T04:58:03.510Z,99.77
2023-04-16T05:00:50.042Z,100.00
2023-04-16T05:03:35.558Z,99.44
2023-04-16T05:06:21.270Z,98.91
2023-04-16T05:09:06.890Z,98.39
2023-04-16T05:11:52.658Z,98.16
2023-04-16T05:14:38.028Z,98.42
2023-04-16T05:17:23.492Z,98.68
2023-04-16T05:20:11.977Z,98.72
2023-04-16T05:22:57.184Z,99.82
2023-04-16T05:25:43.074Z,99.87
2023-04-16T05:28:28.887Z,100.00
2023-04-16T05:31:14.777Z,100.00
2023-04-16T05:34:00.182Z,100.00
2023-04-16T05:36:45.552Z,100.00
2023-04-16T05:39:31.042Z,99.71
2023-04-16T05:42:16.448Z,98.81
2023-04-16T05:45:03.045Z,98.92
2023-04-16T05:47:51.527Z,98.94
2023-04-16T05:50:37.372Z,98.06
2023-04-16T05:53:30.791Z,99.16
2023-04-16T05:56:16.009Z,99.99
2023-04-16T05:59:01.966Z,100.00
2023-04-16T06:01:51.318Z,99.72
2023-04-16T06:04:39.646Z,100.00
2023-04-16T06:07:26.272Z,98.42
2023-04-16T06:10:21.894Z,97.81
2023-04-16T06:13:07.557Z,98.02
2023-04-16T06:15:55.815Z,97.44
2023-04-16T06:18:43.660Z,96.73
2023-04-16T06:21:35.774Z,96.12
2023-04-16T06:24:21.205Z,95.52
2023-04-16T06:27:09.256Z,95.43
2023-04-16T06:29:58.116Z,96.51
2023-04-16T06:32:44.105Z,94.82
2023-04-16T06:35:32.253Z,95.25
2023-04-16T06:41:36.915Z,93.65
2023-04-16T06:44:22.535Z,92.77
2023-04-16T06:47:08.679Z,92.33
2023-04-16T06:49:54.770Z,92.91
2023-04-16T06:52:40.574Z,91.58
2023-04-16T06:55:26.502Z,91.65
2023-04-16T06:58:14.051Z,93.19
2023-04-16T07:01:02.280Z,92.70
2023-04-16T07:03:54.750Z,94.36
2023-04-16T07:06:43.328Z,93.11
2023-04-16T07:09:30.158Z,93.51
2023-04-16T07:12:15.847Z,92.41
2023-04-16T07:15:09.878Z,95.58
2023-04-16T07:17:57.918Z,95.72
2023-04-16T07:20:43.147Z,94.42
2023-04-16T07:23:28.533Z,95.65
2023-04-16T07:26:14.337Z,94.99
2023-04-16T07:29:03.965Z,94.99
2023-04-16T07:32:30.642Z,96.57
2023-04-16T07:35:20.643Z,95.04
2023-04-16T07:38:06.450Z,94.96
2023-04-16T07:40:53.843Z,95.86
2023-04-16T07:43:39.565Z,95.32
2023-04-16T07:46:30.478Z,95.10
2023-04-16T07:49:21.359Z,94.98
2023-04-16T07:52:09.549Z,94.89
2023-04-16T07:54:54.838Z,94.09
2023-04-16T07:57:41.416Z,93.00
2023-04-16T08:00:26.321Z,91.75
2023-04-16T08:03:12.596Z,90.84
2023-04-16T08:05:58.629Z,92.17
2023-04-16T08:08:44.167Z,93.37
2023-04-16T08:11:30.067Z,92.09
2023-04-16T08:14:17.098Z,90.52
2023-04-16T08:17:02.828Z,90.64
2023-04-16T08:19:48.260Z,91.67
2023-04-16T08:22:33.988Z,91.31
2023-04-16T08:25:19.417Z,91.23
2023-04-16T08:28:05.279Z,89.54
2023-04-16T08:30:51.116Z,90.66
2023-04-16T08:33:36.680Z,92.30
2023-04-16T08:36:23.580Z,93.10
2023-04-16T08:39:09.358Z,92.74
2023-04-16T08:41:57.109Z,92.71
2023-04-16T08:44:49.258Z,94.22
2023-04-16T08:47:36.144Z,94.61
2023-04-16T08:50:25.801Z,93.45
2023-04-16T08:53:17.712Z,92.28
2023-04-16T08:56:09.750Z,92.03
2023-04-16T08:58:55.691Z,92.77
2023-04-16T09:01:41.410Z,92.09
2023-04-16T09:04:28.274Z,92.20
2023-04-16T09:07:15.641Z,91.76
2023-04-16T09:10:00.987Z,90.77
2023-04-16T09:12:46.620Z,90.51
2023-04-16T09:15:34.986Z,90.82
2023-04-16T09:18:20.999Z,90.54
2023-04-16T09:21:11.373Z,91.67
2023-04-16T09:23:57.106Z,91.83
2023-04-16T09:26:42.656Z,92.36
2023-04-16T09:29:34.859Z,91.58
2023-04-16T09:32:25.862Z,90.92
2023-04-16T09:35:11.409Z,91.10
2023-04-16T09:37:58.011Z,89.62
2023-04-16T09:40:43.627Z,90.16
2023-04-16T09:43:28.874Z,90.20
2023-04-16T09:46:14.090Z,90.77
2023-04-16T09:49:08.853Z,91.15
2023-04-16T09:51:54.504Z,90.64
2023-04-16T09:54:46.283Z,91.79
2023-04-16T09:57:32.011Z,92.41
2023-04-16T10:00:19.281Z,93.35
2023-04-16T10:03:07.884Z,92.80
2023-04-16T10:05:56.940Z,92.44
2023-04-16T10:08:50.474Z,93.17
2023-04-16T10:11:37.001Z,92.39
2023-04-16T10:14:22.083Z,92.99
2023-04-16T10:17:09.289Z,93.24
2023-04-16T10:19:55.351Z,94.56
2023-04-16T10:22:41.850Z,95.40
2023-04-16T10:25:28.726Z,95.35
2023-04-16T10:28:15.461Z,92.62
2023-04-16T10:31:03.408Z,91.88
2023-04-16T10:33:49.818Z,93.07
2023-04-16T10:36:39.563Z,94.89
2023-04-16T10:39:29.777Z,94.19
2023-04-16T10:42:15.347Z,94.45
2023-04-16T10:45:01.040Z,93.46
2023-04-16T10:47:46.998Z,92.59
2023-04-16T10:50:36.751Z,92.72
2023-04-16T10:53:27.330Z,91.78
2023-04-16T10:56:14.080Z,92.26
2023-04-16T10:58:59.508Z,92.21
2023-04-16T11:01:48.263Z,94.05
2023-04-16T11:04:39.358Z,95.80
2023-04-16T11:07:35.438Z,95.51
2023-04-16T11:10:20.774Z,96.05
2023-04-16T11:13:06.581Z,95.35
2023-04-16T11:15:56.362Z,94.17
2023-04-16T11:18:50.913Z,95.71
2023-04-16T11:21:37.094Z,97.46
2023-04-16T11:24:23.683Z,97.51
2023-04-16T11:27:13.286Z,96.94
2023-04-16T11:30:04.401Z,97.18
2023-04-16T11:32:49.992Z,96.46
2023-04-16T11:35:35.869Z,96.03
2023-04-16T11:38:32.263Z,95.99
2023-04-16T11:41:20.874Z,95.74
2023-04-16T11:44:26.025Z,96.40
2023-04-16T11:47:11.691Z,96.60
2023-04-16T11:49:58.308Z,95.22
2023-04-16T11:52:44.416Z,95.67
2023-04-16T11:55:29.897Z,96.47
2023-04-16T11:58:15.344Z,94.89
2023-04-16T12:01:01.906Z,93.60
2023-04-16T12:03:47.567Z,93.36
2023-04-16T12:06:32.941Z,92.90
2023-04-16T12:09:25.950Z,92.14
2023-04-16T12:12:27.933Z,91.56
2023-04-16T12:15:14.086Z,90.84
2023-04-16T12:18:09.111Z,91.48
2023-04-16T12:20:55.177Z,91.85
2023-04-16T12:23:41.470Z,91.49
2023-04-16T12:26:27.237Z,91.82
2023-04-16T12:29:21.424Z,91.96
2023-04-16T12:32:23.031Z,90.11
2023-04-16T12:35:11.335Z,87.59
2023-04-16T12:37:57.300Z,87.93
2023-04-16T12:40:43.231Z,86.60
2023-04-16T12:43:28.694Z,89.01
2023-04-16T12:46:14.353Z,87.88
2023-04-16T12:48:59.667Z,87.77
2023-04-16T12:51:45.303Z,85.81
2023-04-16T12:54:30.892Z,87.71
2023-04-16T12:57:18.068Z,88.30
2023-04-16T13:00:03.945Z,87.18
2023-04-16T13:02:49.521Z,86.65
2023-04-16T13:05:35.369Z,87.74
2023-04-16T13:08:20.952Z,87.71
2023-04-16T13:11:06.656Z,89.23
2023-04-16T13:13:52.568Z,88.52
2023-04-16T13:16:38.320Z,87.63
2023-04-16T13:19:23.971Z,88.09
2023-04-16T13:22:10.103Z,89.22
2023-04-16T13:24:55.655Z,89.17
2023-04-16T13:27:41.997Z,88.58
2023-04-16T13:30:27.534Z,87.65
2023-04-16T13:33:13.308Z,88.32
2023-04-16T13:35:58.991Z,89.00
2023-04-16T13:38:44.513Z,90.06
2023-04-16T13:41:30.110Z,90.40
2023-04-16T13:44:15.182Z,91.54
2023-04-16T13:47:00.967Z,91.21
2023-04-16T13:49:46.502Z,90.54
2023-04-16T13:52:31.593Z,90.31
2023-04-16T13:55:17.732Z,89.29
2023-04-16T13:58:03.462Z,87.91
2023-04-16T14:00:49.045Z,88.02
2023-04-16T14:03:34.708Z,87.62
2023-04-16T14:06:19.924Z,87.77
2023-04-16T14:09:05.430Z,88.55
2023-04-16T14:11:51.372Z,85.83
2023-04-16T14:14:36.896Z,85.05
2023-04-16T14:17:22.585Z,84.44
2023-04-16T14:20:09.025Z,85.36
2023-04-16T14:22:54.554Z,86.27
2023-04-16T14:25:40.276Z,87.25
2023-04-16T14:28:25.824Z,86.25
2023-04-16T14:31:11.233Z,84.18
2023-04-16T14:33:56.281Z,82.88
2023-04-16T14:36:41.601Z,81.84
2023-04-16T14:39:27.144Z,80.64
2023-04-16T14:42:12.467Z,84.26
2023-04-16T14:44:58.045Z,85.43
2023-04-16T14:47:43.327Z,84.97
2023-04-16T14:50:28.953Z,85.20
2023-04-16T14:53:14.522Z,85.44
2023-04-16T14:55:59.646Z,85.74
2023-04-16T14:58:45.010Z,86.58
2023-04-16T15:01:30.530Z,87.16
2023-04-16T15:04:15.775Z,86.28
2023-04-16T15:07:01.488Z,83.63
2023-04-16T15:09:46.466Z,81.20
2023-04-16T15:12:31.757Z,84.74
2023-04-16T15:15:17.320Z,86.07
2023-04-16T15:18:05.454Z,84.63
2023-04-16T15:20:52.282Z,84.82
2023-04-16T15:23:38.496Z,84.32
2023-04-16T15:26:24.378Z,84.19
2023-04-16T15:29:10.957Z,83.54
2023-04-16T15:31:57.474Z,83.36
2023-04-16T15:34:43.404Z,82.72
2023-04-16T15:37:30.287Z,82.27
2023-04-16T15:40:16.162Z,83.84
2023-04-16T15:43:02.179Z,84.80
2023-04-16T15:45:47.813Z,83.82
2023-04-16T15:48:35.343Z,83.55
2023-04-16T15:51:22.849Z,83.13
2023-04-16T15:54:08.867Z,82.48
2023-04-16T15:56:55.259Z,81.59
2023-04-16T15:59:41.223Z,81.90
2023-04-16T16:02:27.465Z,81.34
2023-04-16T16:05:17.481Z,82.05
2023-04-16T16:08:03.635Z,81.11
2023-04-16T16:10:49.413Z,82.48
2023-04-16T16:13:41.345Z,81.31
2023-04-16T16:16:28.301Z,82.85
2023-04-16T16:19:15.819Z,81.48
2023-04-16T16:22:01.749Z,80.12
2023-04-16T16:24:49.358Z,81.35
2023-04-16T16:27:35.360Z,80.33
2023-04-16T16:30:22.817Z,80.88
2023-04-16T16:33:09.496Z,80.04
2023-04-16T16:35:55.771Z,79.65
2023-04-16T16:38:41.800Z,80.59
2023-04-16T16:41:31.215Z,80.17
2023-04-16T16:44:17.356Z,79.77
2023-04-16T16:47:03.229Z,79.88
2023-04-16T16:49:51.419Z,80.12
2023-04-16T16:52:38.297Z,80.76
2023-04-16T16:55:24.804Z,80.08
2023-04-16T16:58:15.784Z,79.06
2023-04-16T17:01:01.627Z,78.65
2023-04-16T17:03:47.329Z,79.80
2023-04-16T17:06:35.778Z,79.44
2023-04-16T17:09:24.989Z,79.94
2023-04-16T17:12:10.393Z,81.02
2023-04-16T17:14:56.103Z,83.04
2023-04-16T17:17:42.034Z,85.03
2023-04-16T17:20:28.204Z,85.85
2023-04-16T17:23:13.928Z,86.72
2023-04-16T17:26:04.034Z,87.98
2023-04-16T17:28:49.613Z,88.89
2023-04-16T17:31:35.475Z,88.86
2023-04-16T17:34:21.363Z,88.51
2023-04-16T17:37:07.021Z,87.25
2023-04-16T17:39:53.649Z,89.59
2023-04-16T17:42:39.152Z,89.12
2023-04-16T17:45:25.467Z,89.16
2023-04-16T17:48:10.788Z,88.92
2023-04-16T17:50:56.018Z,87.13
2023-04-16T17:53:41.533Z,85.61
2023-04-16T17:56:26.781Z,87.75
2023-04-16T17:59:12.117Z,88.46
2023-04-16T18:01:57.363Z,86.75
2023-04-16T18:04:45.847Z,85.92
2023-04-16T18:07:32.544Z,85.92
2023-04-16T18:10:18.224Z,86.33
2023-04-16T18:13:05.131Z,84.36
2023-04-16T18:15:53.007Z,85.52
2023-04-16T18:18:38.561Z,86.33
2023-04-16T18:21:24.339Z,86.46
2023-04-16T18:24:10.333Z,85.64
2023-04-16T18:26:56.300Z,86.61
2023-04-16T18:29:45.246Z,87.79
2023-04-16T18:32:31.506Z,88.41
2023-04-16T18:35:17.228Z,87.72
2023-04-16T18:38:02.754Z,87.41
2023-04-16T18:40:48.461Z,88.41
2023-04-16T18:43:33.939Z,88.33
2023-04-16T18:46:19.452Z,87.10
2023-04-16T18:49:05.184Z,88.68
2023-04-16T18:51:50.803Z,89.67
2023-04-16T18:54:36.337Z,87.54
2023-04-16T18:57:21.864Z,87.00
2023-04-16T19:00:08.097Z,87.76
2023-04-16T19:02:53.556Z,89.29
2023-04-16T19:05:39.171Z,88.81
2023-04-16T19:08:24.865Z,87.14
2023-04-16T19:11:10.558Z,87.46
2023-04-16T19:13:55.945Z,87.71
2023-04-16T19:16:42.076Z,86.62
2023-04-16T19:19:27.628Z,87.38
2023-04-16T19:22:13.090Z,88.17
2023-04-16T19:24:58.486Z,87.14
2023-04-16T19:27:45.298Z,85.82
2023-04-16T19:30:30.927Z,84.45
2023-04-16T19:33:16.146Z,85.30
2023-04-16T19:36:01.776Z,85.33
2023-04-16T19:38:47.245Z,87.12
2023-04-16T19:41:33.006Z,87.67
2023-04-16T19:44:18.474Z,88.06
2023-04-16T19:47:04.394Z,88.20
2023-04-16T19:49:51.794Z,87.44
2023-04-16T19:52:37.508Z,86.54
2023-04-16T19:55:23.012Z,86.33
2023-04-16T19:58:09.231Z,85.30
2023-04-16T20:00:55.037Z,84.15
2023-04-16T20:03:40.473Z,83.84
2023-04-16T20:06:25.792Z,83.91
2023-04-16T20:09:11.571Z,82.46
2023-04-16T20:12:00.144Z,82.95
2023-04-16T20:14:57.023Z,82.79
2023-04-16T20:17:42.422Z,84.96
2023-04-16T20:20:27.825Z,83.93
2023-04-16T20:23:13.759Z,83.74
2023-04-16T20:25:59.507Z,83.42
2023-04-16T20:28:45.487Z,82.69
2023-04-16T20:31:31.209Z,82.34
2023-04-16T20:34:16.652Z,80.90
2023-04-16T20:37:02.279Z,80.89
2023-04-16T20:39:47.901Z,81.07
2023-04-16T20:42:33.392Z,81.06
2023-04-16T20:45:18.986Z,80.81
2023-04-16T20:48:05.273Z,80.82
2023-04-16T20:50:50.548Z,80.76
2023-04-16T20:53:36.045Z,80.40
2023-04-16T20:56:21.665Z,80.63
2023-04-16T20:59:07.028Z,80.43
2023-04-16T21:01:52.849Z,79.39
2023-04-16T21:04:39.791Z,80.32
2023-04-16T21:07:25.411Z,80.40
2023-04-16T21:10:11.269Z,79.97
2023-04-16T21:12:57.181Z,80.75
2023-04-16T21:15:43.564Z,81.27
2023-04-16T21:18:28.887Z,80.88
2023-04-16T21:21:13.920Z,80.77
2023-04-16T21:23:59.624Z,80.54
2023-04-16T21:26:44.834Z,80.67
2023-04-16T21:29:30.204Z,80.35
2023-04-16T21:32:15.405Z,80.38
2023-04-16T21:35:00.737Z,81.76
2023-04-16T21:37:46.190Z,82.29
2023-04-16T21:40:31.540Z,82.42
2023-04-16T21:43:17.293Z,82.43
2023-04-16T21:46:02.578Z,82.83
2023-04-16T21:48:47.707Z,83.47
2023-04-16T21:51:33.043Z,84.29
2023-04-16T21:54:18.363Z,85.13
2023-04-16T21:57:03.753Z,86.89
2023-04-16T21:59:49.127Z,86.40
2023-04-16T22:02:34.286Z,86.43
2023-04-16T22:05:19.581Z,86.56
2023-04-16T22:08:16.945Z,87.35
2023-04-16T22:11:06.757Z,86.56
2023-04-16T22:13:52.010Z,86.53
2023-04-16T22:16:37.606Z,85.72
2023-04-16T22:19:23.088Z,85.52
2023-04-16T22:22:08.576Z,84.77
2023-04-16T22:24:54.315Z,84.39
2023-04-16T22:27:39.542Z,84.30
2023-04-16T22:30:24.813Z,84.03
2023-04-16T22:33:10.383Z,83.95
2023-04-16T22:35:55.662Z,83.44
2023-04-16T22:38:40.973Z,83.72
2023-04-16T22:41:26.368Z,83.35
2023-04-16T22:44:11.607Z,82.86
2023-04-16T22:46:57.139Z,82.94
2023-04-16T22:49:42.204Z,82.94
2023-04-16T22:52:27.911Z,83.79
2023-04-16T22:55:12.951Z,84.29
2023-04-16T22:57:58.191Z,85.01
2023-04-16T23:00:43.566Z,86.04
2023-04-16T23:03:28.880Z,86.32
2023-04-16T23:06:14.145Z,86.23
2023-04-16T23:08:59.322Z,85.37
2023-04-16T23:11:44.767Z,85.16
2023-04-16T23:14:30.252Z,85.30
2023-04-16T23:17:15.800Z,86.43
2023-04-16T23:20:01.204Z,87.72
2023-04-16T23:22:46.773Z,87.71
2023-04-16T23:25:32.255Z,85.73
2023-04-16T23:28:17.440Z,85.88
2023-04-16T23:31:04.205Z,84.98
2023-04-16T23:33:51.395Z,84.49
2023-04-16T23:36:36.676Z,84.50
2023-04-16T23:39:22.186Z,86.14
2023-04-16T23:42:07.489Z,87.39
2023-04-16T23:44:52.692Z,87.88
2023-04-16T23:47:38.400Z,87.74
2023-04-16T23:50:23.486Z,87.19
2023-04-16T23:53:08.724Z,87.23
2023-04-16T23:55:54.025Z,88.44
2023-04-16T23:58:39.280Z,88.55
